1997 Severe Tropical Cyclone RHONDA (1997125S08079)


IBTrACS version v04r00. Visit IBTrACS website for data access.
Please direct all questions to the IBTrACS Q and A forum

Storm track - Intensity - Wind Radii - Intensity Data - Source Data - All data

Summary Information

Satellite image near maximum intensity
Storm ID 1997125S08079
Start May 4 12Z
Max Intensity 100 kt (May 14 00Z), 935 mb (May 14 04Z)
End May 17 12Z
ATCF IDs SH361997
Track status Best track data.

Storm track plot

Map of storm track

Intensity plots

Map of storm track

Radial wind information

Map of storm track

Position and Intensity Table

BASIN ISO_TIME_________ NATURE LAT LON WMO WIND WMO PRES USA WIND BOM WIND BOM PRES NEUMANN WIND
degrees north degrees east kts mb kts kts mb kts
SI 1997-05-04 12:00:00 TS -8.10 79.40 15 15
SI 15:00:00 TS -8.05 79.20 15 15
SI 18:00:00 TS -8.00 79.00 15 15
SI 21:00:00 TS -7.96 78.80 15 15
SI 1997-05-05 00:00:00 TS -7.90 78.60 15 15
SI 03:00:00 TS -7.81 78.39 15 15
SI 06:00:00 TS -7.70 78.20 15 15
SI 09:00:00 TS -7.60 78.04 15 15
SI 12:00:00 TS -7.50 77.90 15 15
SI 15:00:00 TS -7.40 77.77 15 15
SI 18:00:00 TS -7.30 77.60 15 15
SI 21:00:00 TS -7.19 77.36 15 15
SI 1997-05-06 00:00:00 TS -7.10 77.10 15 15
SI 03:00:00 TS -7.03 76.85 15 15
SI 06:00:00 TS -7.00 76.60 15 15
SI 09:00:00 TS -6.97 76.33 15 15
SI 12:00:00 TS -7.00 76.10 15 15
SI 15:00:00 TS -7.12 75.93 15 15
SI 18:00:00 TS -7.30 75.80 15 15
SI 21:00:00 TS -7.50 75.69 15 15
SI 1997-05-07 00:00:00 TS -7.70 75.60 15 15
SI 03:00:00 TS -7.86 75.54 15 15
SI 06:00:00 TS -8.00 75.50 15 15
SI 09:00:00 TS -8.14 75.44 15 15
SI 12:00:00 TS -8.30 75.40 15 15
SI 15:00:00 TS -8.50 75.42 15 15
SI 18:00:00 TS -8.70 75.50 15 15
SI 21:00:00 TS -8.85 75.63 15 15
SI 1997-05-08 00:00:00 TS -9.00 75.80 15 15
SI 03:00:00 TS -9.20 75.97 17 17
SI 06:00:00 TS -9.40 76.20 20 20
SI 09:00:00 TS -9.56 76.51 20 20
SI 12:00:00 TS -9.70 76.90 20 20
SI 15:00:00 TS -9.85 77.36 20 20
SI 18:00:00 TS -10.00 77.90 20 20
SI 21:00:00 TS -10.15 78.52 20 20
SI 1997-05-09 00:00:00 TS -10.30 79.20 20 20
SI 03:00:00 TS -10.45 79.89 20 20
SI 06:00:00 TS -10.60 80.60 20 20
SI 09:00:00 TS -10.75 81.34 20 20
SI 12:00:00 TS -10.90 82.10 20 20
SI 15:00:00 TS -11.05 82.87 22 22
SI 18:00:00 TS -11.20 83.60 25 25
SI 21:00:00 TS -11.36 84.27 25 25
SI 1997-05-10 00:00:00 TS -11.50 84.90 25 25
SI 01:00:00 TS -11.47 85.04 25 25 1000 25
SI 03:00:00 TS -11.46 85.37 25 25 999 25
SI 06:00:00 TS -11.42 85.92 25 27 999 25
SI 09:00:00 TS -11.36 86.51 27 28 998 27
SI 12:00:00 TS -11.33 87.18 30 29 998 30
SI 13:00:00 TS -11.32 87.41 30 30 998 30
SI 15:00:00 TS -11.31 87.89 32 30 997 32
SI 18:00:00 TS -11.32 88.60 35 32 996 35
SI 21:00:00 TS -11.39 89.30 37 33 996 37
SI 1997-05-11 00:00:00 TS -11.48 89.90 40 34 995 40
SI 01:00:00 TS -11.51 90.06 35 995 40 35 995 40
SI 03:00:00 TS -11.57 90.31 42 36 993 42
SI 06:00:00 TS -11.65 90.57 45 37 992 45
SI 09:00:00 TS -11.72 90.79 45 39 990 45
SI 10:00:00 TS -11.74 90.85 40 990 45 40 990 45
SI 12:00:00 TS -11.78 90.97 45 40 990 45
SI 15:00:00 TS -11.82 91.15 45 40 990 45
SI 16:00:00 TS -11.84 91.21 40 990 45 40 990 45
SI 18:00:00 TS -11.89 91.32 45 41 988 45
SI 21:00:00 TS -11.98 91.49 47 44 985 47
SI 22:00:00 TS -12.01 91.55 45 985 48 45 985 48
SI 1997-05-12 00:00:00 TS -12.07 91.66 50 46 985 50
SI 03:00:00 TS -12.16 91.79 52 49 985 52
SI 04:00:00 TS -12.20 91.83 50 985 53 50 985 53
SI 06:00:00 TS -12.29 91.92 55 53 981 55
SI 07:00:00 TS -12.33 91.97 55 980 55 55 980 55
SI 09:00:00 TS -12.42 92.10 57 55 980 57
SI 10:00:00 TS -12.47 92.17 55 980 58 55 980 58
SI 12:00:00 TS -12.54 92.30 60 56 978 60
SI 15:00:00 TS -12.66 92.48 62 59 975 62
SI 16:00:00 TS -12.70 92.54 60 975 63 60 975 63
SI 18:00:00 TS -12.79 92.69 65 60 975 65
SI 21:00:00 TS -12.95 92.94 67 60 975 67
SI 22:00:00 TS -13.00 93.02 60 975 68 60 975 68
SI 1997-05-13 00:00:00 TS -13.11 93.17 70 61 973 70
SI 03:00:00 TS -13.27 93.38 72 64 970 72
SI 04:00:00 TS -13.33 93.46 65 970 73 65 970 73
SI 06:00:00 TS -13.44 93.60 75 71 966 75
SI 07:00:00 TS -13.50 93.68 75 965 75 75 965 75
SI 09:00:00 TS -13.62 93.89 77 78 961 77
SI 10:00:00 TS -13.69 94.01 80 960 78 80 960 78
SI 12:00:00 TS -13.87 94.25 80 80 958 80
SI 15:00:00 TS -14.20 94.68 85 80 955 85
SI 16:00:00 TS -14.33 94.83 80 955 86 80 955 86
SI 18:00:00 TS -14.59 95.15 90 81 953 90
SI 21:00:00 TS -14.98 95.64 95 84 950 95
SI 22:00:00 TS -15.11 95.80 85 950 96 85 950 96
SI 1997-05-14 00:00:00 TS -15.39 96.12 100 88 946 100
SI 01:00:00 TS -15.53 96.28 90 945 100 90 945 100
SI 03:00:00 TS -15.81 96.60 100 93 938 100
SI 04:00:00 TS -15.96 96.77 95 935 100 95 935 100
SI 06:00:00 TS -16.27 97.13 100 95 938 100
SI 07:00:00 TS -16.43 97.32 95 940 100 95 940 100
SI 09:00:00 TS -16.77 97.70 100 91 943 100
SI 10:00:00 TS -16.93 97.89 90 945 100 90 945 100
SI 12:00:00 TS -17.23 98.26 100 88 946 100
SI 15:00:00 TS -17.65 98.83 97 85 949 97
SI 16:00:00 TS -17.79 99.03 85 950 96 85 950 96
SI 18:00:00 TS -18.10 99.42 95 83 951 95
SI 21:00:00 TS -18.59 99.98 85 80 954 85
SI 22:00:00 TS -18.76 100.16 80 955 81 80 955 81
SI 1997-05-15 00:00:00 TS -19.05 100.53 75 76 961 75
SI 01:00:00 TS -19.19 100.73 75 965 73 75 965 73
SI 03:00:00 TS -19.47 101.17 70 68 968 70
SI 04:00:00 TS -19.61 101.42 65 970 68 65 970 68
SI 06:00:00 TS -19.89 101.93 65 63 971 65
SI 09:00:00 TS -20.36 102.78 62 60 974 62
SI 10:00:00 TS -20.52 103.08 60 975 61 60 975 61
SI 12:00:00 TS -20.87 103.69 60 58 976 60
SI 15:00:00 TS -21.38 104.64 57 55 979 57
SI 16:00:00 TS -21.55 104.97 55 980 56 55 980 56
SI 18:00:00 TS -21.93 105.64 55 51 981 55
SI 21:00:00 TS -22.58 106.64 50 46 984 50
SI 22:00:00 TS -22.80 106.95 45 985 48 45 985 48
SI 1997-05-16 00:00:00 TS -23.21 107.52 45 41 988 45
SI 01:00:00 TS -23.40 107.77 40 990 44 40 990 44
SI 03:00:00 TS -23.75 108.21 42 36 993 42
SI 04:00:00 TS -23.91 108.41 35 995 41 35 995 41
SI 06:00:00 TS -24.22 108.80 40 31 996 40
SI 07:00:00 TS -24.36 108.97 30 998 39 30 998 39
SI 09:00:00 TS -24.55 109.24 37 26 999 37
SI 10:00:00 TS -24.63 109.35 25 1000 36 25 1000 36
SI 12:00:00 TS -24.79 109.57 35 25 1000 35
SI 13:00:00 TS -24.86 109.67 25 1000 34 25 1000 34
SI 15:00:00 TS -24.98 109.85 32 25 1000 32
SI 16:00:00 TS -25.03 109.94 25 1000 31 25 1000 31
SI 18:00:00 TS -25.13 110.13 30 25 1000 30
SI 19:00:00 TS -25.19 110.24 25 1000 30 25 1000 30
SI 21:00:00 TS -25.36 110.46 30 25 1000 30
SI 22:00:00 TS -25.46 110.57 25 1000 30 25 1000 30
SI 1997-05-17 00:00:00 TS -25.68 110.76 30 25 1000 30
SI 01:00:00 TS -25.79 110.86 25 1000 30 25 1000 30
SI 03:00:00 TS -25.99 111.08 30 25 1000 30
SI 04:00:00 TS -26.09 111.19 25 1000 30 25 1000 30
SI 06:00:00 TS -26.32 111.39 30 23 1001 30
SI 09:00:00 TS -26.68 111.68 27 20 1004 27
SI 10:00:00 TS -26.77 111.74 20 1005 26 20 1005 26
SI 12:00:00 TS -26.80 111.80 25 25

Source Information

Agency Information
USA bsh361997.txt
TOKYO
CMA
HKO
NEWDELHI
REUNION
BOM IDCKMSTM0S.csv:Line=19390:RHONDA
NADI
WELLINGTON
DS824
TD9636
TD9635
NEUMANN tracks.sh:Storm=1100:RHONDA:BSH361997:JTWC&BM858
MLC

All available IBTrACS Data

SEASON BASIN SUBBASIN ISO_TIME_________ NATURE LAT LON WMO WIND WMO PRES WMO AGENCY DIST2LAND LANDFALL IFLAG USA AGENCY USA ATCF_ID USA LAT USA LON USA WIND USA SSHS BOM LAT BOM LON BOM TYPE BOM WIND BOM PRES BOM CI BOM ROCI BOM EYE BOM POS_METHOD BOM PRES_METHOD NEUMANN LAT NEUMANN LON NEUMANN CLASS NEUMANN WIND STORM SPEED STORM DIR
Year degrees north degrees east kts mb km km degrees north degrees east kts 1 degrees north degrees east kts mb 1 nmile nmile degrees north degrees east kts kts degrees
1997 SI MM 1997-05-04 12:00:00 TS -8.10 79.40 1574 1574 O___________O_ jtwc_sh SH361997 -8.10 79.40 15 -1 -8.10 79.40 TC 15 4 285
1997 SI MM 15:00:00 TS -8.05 79.20 1565 1565 P___________P_ SH361997 -8.05 79.20 15 -1 -8.05 79.20 TC 15 4 284
1997 SI MM 18:00:00 TS -8.00 79.00 1567 1567 O___________O_ jtwc_sh SH361997 -8.00 79.00 15 -1 -8.00 79.00 TC 15 4 283
1997 SI MM 21:00:00 TS -7.96 78.80 1570 1559 P___________P_ SH361997 -7.96 78.80 15 -1 -7.96 78.80 TC 15 4 284
1997 SI MM 1997-05-05 00:00:00 TS -7.90 78.60 1562 1552 O___________O_ jtwc_sh SH361997 -7.90 78.60 15 -1 -7.90 78.60 TC 15 4 290
1997 SI MM 03:00:00 TS -7.81 78.39 1554 1545 P___________P_ SH361997 -7.81 78.39 15 -1 -7.81 78.39 TC 15 4 297
1997 SI MM 06:00:00 TS -7.70 78.20 1547 1538 O___________O_ jtwc_sh SH361997 -7.70 78.20 15 -1 -7.70 78.20 TC 15 4 301
1997 SI MM 09:00:00 TS -7.60 78.04 1540 1529 P___________P_ SH361997 -7.60 78.04 15 -1 -7.60 78.04 TC 15 4 304
1997 SI MM 12:00:00 TS -7.50 77.90 1531 1522 O___________O_ jtwc_sh SH361997 -7.50 77.90 15 -1 -7.50 77.90 TC 15 3 306
1997 SI MM 15:00:00 TS -7.40 77.77 1522 1513 P___________P_ SH361997 -7.40 77.77 15 -1 -7.40 77.77 TC 15 4 304
1997 SI MM 18:00:00 TS -7.30 77.60 1516 1507 O___________O_ jtwc_sh SH361997 -7.30 77.60 15 -1 -7.30 77.60 TC 15 4 298
1997 SI MM 21:00:00 TS -7.19 77.36 1510 1504 P___________P_ SH361997 -7.19 77.36 15 -1 -7.19 77.36 TC 15 5 292
1997 SI MM 1997-05-06 00:00:00 TS -7.10 77.10 1507 1502 O___________O_ jtwc_sh SH361997 -7.10 77.10 15 -1 -7.10 77.10 TC 15 5 287
1997 SI MM 03:00:00 TS -7.03 76.85 1502 1502 P___________P_ SH361997 -7.03 76.85 15 -1 -7.03 76.85 TC 15 5 281
1997 SI MM 06:00:00 TS -7.00 76.60 1512 1512 O___________O_ jtwc_sh SH361997 -7.00 76.60 15 -1 -7.00 76.60 TC 15 5 277
1997 SI MM 09:00:00 TS -6.97 76.33 1522 1522 P___________P_ SH361997 -6.97 76.33 15 -1 -6.97 76.33 TC 15 5 270
1997 SI MM 12:00:00 TS -7.00 76.10 1529 1529 O___________O_ jtwc_sh SH361997 -7.00 76.10 15 -1 -7.00 76.10 TC 15 4 250
1997 SI MM 15:00:00 TS -7.12 75.93 1547 1547 P___________P_ SH361997 -7.12 75.93 15 -1 -7.12 75.93 TC 15 4 225
1997 SI MM 18:00:00 TS -7.30 75.80 1571 1571 O___________O_ jtwc_sh SH361997 -7.30 75.80 15 -1 -7.30 75.80 TC 15 5 212
1997 SI MM 21:00:00 TS -7.50 75.69 1596 1596 P___________P_ SH361997 -7.50 75.69 15 -1 -7.50 75.69 TC 15 4 206
1997 SI MM 1997-05-07 00:00:00 TS -7.70 75.60 1621 1621 O___________O_ jtwc_sh SH361997 -7.70 75.60 15 -1 -7.70 75.60 TC 15 4 202
1997 SI MM 03:00:00 TS -7.86 75.54 1646 1646 P___________P_ SH361997 -7.86 75.54 15 -1 -7.86 75.54 TC 15 3 197
1997 SI MM 06:00:00 TS -8.00 75.50 1656 1656 O___________O_ jtwc_sh SH361997 -8.00 75.50 15 -1 -8.00 75.50 TC 15 3 200
1997 SI MM 09:00:00 TS -8.14 75.44 1671 1671 P___________P_ SH361997 -8.14 75.44 15 -1 -8.14 75.44 TC 15 3 197
1997 SI MM 12:00:00 TS -8.30 75.40 1692 1692 O___________O_ jtwc_sh SH361997 -8.30 75.40 15 -1 -8.30 75.40 TC 15 4 184
1997 SI MM 15:00:00 TS -8.50 75.42 1713 1713 P___________P_ SH361997 -8.50 75.42 15 -1 -8.50 75.42 TC 15 4 167
1997 SI MM 18:00:00 TS -8.70 75.50 1731 1731 O___________O_ jtwc_sh SH361997 -8.70 75.50 15 -1 -8.70 75.50 TC 15 4 150
1997 SI MM 21:00:00 TS -8.85 75.63 1738 1738 P___________P_ SH361997 -8.85 75.63 15 -1 -8.85 75.63 TC 15 4 136
1997 SI MM 1997-05-08 00:00:00 TS -9.00 75.80 1752 1752 O___________O_ jtwc_sh SH361997 -9.00 75.80 15 -1 -9.00 75.80 TC 15 5 136
1997 SI MM 03:00:00 TS -9.20 75.97 1767 1767 P___________P_ SH361997 -9.20 75.97 17 -1 -9.20 75.97 TC 17 6 135
1997 SI MM 06:00:00 TS -9.40 76.20 1782 1779 O___________O_ jtwc_sh SH361997 -9.40 76.20 20 -1 -9.40 76.20 TC 20 6 124
1997 SI MM 09:00:00 TS -9.56 76.51 1795 1789 P___________P_ SH361997 -9.56 76.51 20 -1 -9.56 76.51 TC 20 8 114
1997 SI MM 12:00:00 TS -9.70 76.90 1795 1793 O___________O_ jtwc_sh SH361997 -9.70 76.90 20 -1 -9.70 76.90 TC 20 9 109
1997 SI MM 15:00:00 TS -9.85 77.36 1794 1794 P___________P_ SH361997 -9.85 77.36 20 -1 -9.85 77.36 TC 20 10 107
1997 SI MM 18:00:00 TS -10.00 77.90 1806 1803 O___________O_ jtwc_sh SH361997 -10.00 77.90 20 -1 -10.00 77.90 TC 20 12 105
1997 SI MM 21:00:00 TS -10.15 78.52 1807 1807 P___________P_ SH361997 -10.15 78.52 20 -1 -10.15 78.52 TC 20 13 103
1997 SI MM 1997-05-09 00:00:00 TS -10.30 79.20 1821 1820 O___________O_ jtwc_sh SH361997 -10.30 79.20 20 -1 -10.30 79.20 TC 20 14 103
1997 SI MM 03:00:00 TS -10.45 79.89 1828 1828 P___________P_ SH361997 -10.45 79.89 20 -1 -10.45 79.89 TC 20 14 102
1997 SI MM 06:00:00 TS -10.60 80.60 1848 1848 O___________O_ jtwc_sh SH361997 -10.60 80.60 20 -1 -10.60 80.60 TC 20 15 102
1997 SI MM 09:00:00 TS -10.75 81.34 1861 1861 P___________P_ SH361997 -10.75 81.34 20 -1 -10.75 81.34 TC 20 15 102
1997 SI MM 12:00:00 TS -10.90 82.10 1889 1889 O___________O_ jtwc_sh SH361997 -10.90 82.10 20 -1 -10.90 82.10 TC 20 15 101
1997 SI MM 15:00:00 TS -11.05 82.87 1910 1910 P___________P_ SH361997 -11.05 82.87 22 -1 -11.05 82.87 TC 22 15 102
1997 SI MM 18:00:00 TS -11.20 83.60 1944 1944 O___________O_ jtwc_sh SH361997 -11.20 83.60 25 -1 -11.20 83.60 TC 25 14 103
1997 SI MM 21:00:00 TS -11.36 84.27 1944 1896 P___________P_ SH361997 -11.36 84.27 25 -1 -11.36 84.27 TC 25 13 103
1997 SI MM 1997-05-10 00:00:00 TS -11.50 84.90 1896 1887 O___________O_ jtwc_sh SH361997 -11.50 84.90 25 -1 -11.50 84.90 TC 25 11 98
1997 SI MM 01:00:00 TS -11.47 85.04 1887 1860 P_____O_____P_ SH361997 -11.53 85.10 25 -1 -11.00 84.50 20 25 1000 2.00 242 3 5 -11.53 85.10 TC 25 9 85
1997 SI MM 03:00:00 TS -11.46 85.37 1851 1800 P_____P_____P_ SH361997 -11.58 85.50 25 -1 -10.98 84.87 20 25 999 242 -11.58 85.50 TC 25 10 87
1997 SI MM 06:00:00 TS -11.42 85.92 1800 1748 O_____P_____O_ jtwc_sh SH361997 -11.60 86.10 25 -1 -10.95 85.44 20 27 999 242 -11.60 86.10 TC 25 11 85
1997 SI MM 09:00:00 TS -11.36 86.51 1748 1689 P_____P_____P_ SH361997 -11.56 86.74 27 -1 -10.95 86.05 20 28 998 242 -11.56 86.74 TC 27 12 86
1997 SI MM 12:00:00 TS -11.33 87.18 1681 1664 O_____P_____O_ jtwc_sh SH361997 -11.50 87.40 30 -1 -10.98 86.75 20 29 998 242 -11.50 87.40 TC 30 13 87
1997 SI MM 13:00:00 TS -11.32 87.41 1664 1630 P_____O_____P_ SH361997 -11.48 87.62 30 -1 -11.00 87.00 20 30 998 2.50 242 3 5 -11.48 87.62 TC 30 14 88
1997 SI MM 15:00:00 TS -11.31 87.89 1622 1565 P_____P_____P_ SH361997 -11.43 88.06 32 -1 -11.06 87.54 20 30 997 242 -11.43 88.06 TC 32 14 90
1997 SI MM 18:00:00 TS -11.32 88.60 1565 1518 O_____P_____O_ jtwc_sh SH361997 -11.40 88.70 35 0 -11.17 88.39 20 32 996 242 -11.40 88.70 TC 35 14 93
1997 SI MM 21:00:00 TS -11.39 89.30 1518 1480 P_____P_____P_ SH361997 -11.44 89.35 37 0 -11.31 89.21 20 33 996 242 -11.44 89.35 TC 37 13 97
1997 SI MM 1997-05-11 00:00:00 TS -11.48 89.90 1480 1466 O_____P_____O_ jtwc_sh SH361997 -11.50 89.90 40 0 -11.45 89.91 20 34 995 242 -11.50 89.90 TC 40 11 99
1997 SI WA 01:00:00 TS -11.51 90.06 35 995 bom 1466 1458 P_____O_____P_ SH361997 -11.52 90.04 40 0 -11.50 90.10 30 35 995 3.00 242 3 5 -11.52 90.04 TC 40 8 102
1997 SI WA 03:00:00 TS -11.57 90.31 1460 1438 P_____P_____P_ SH361997 -11.55 90.26 42 0 -11.60 90.40 30 36 993 242 -11.55 90.26 TC 42 6 105
1997 SI WA 06:00:00 TS -11.65 90.57 1438 1433 O_____P_____O_ jtwc_sh SH361997 -11.60 90.50 45 0 -11.74 90.72 30 37 992 242 -11.60 90.50 TC 45 5 108
1997 SI WA 09:00:00 TS -11.72 90.79 1433 1426 P_____P_____P_ SH361997 -11.65 90.72 45 0 -11.87 90.94 30 39 990 242 -11.65 90.72 TC 45 4 109
1997 SI WA 10:00:00 TS -11.74 90.85 40 990 bom 1426 1426 P_____O_____P_ SH361997 -11.67 90.78 45 0 -11.90 91.00 30 40 990 3.00 242 3 5 -11.67 90.78 TC 45 4 107
1997 SI WA 12:00:00 TS -11.78 90.97 1428 1421 O_____P_____O_ jtwc_sh SH361997 -11.70 90.90 45 0 -11.94 91.12 30 40 990 242 -11.70 90.90 TC 45 4 105
1997 SI WA 15:00:00 TS -11.82 91.15 1415 1415 P_____P_____P_ SH361997 -11.74 91.10 45 0 -11.98 91.26 30 40 990 242 -11.74 91.10 TC 45 4 105
1997 SI WA 16:00:00 TS -11.84 91.21 40 990 bom 1415 1415 P_____O_____P_ SH361997 -11.76 91.17 45 0 -12.00 91.30 30 40 990 3.00 242 3 5 -11.76 91.17 TC 45 4 112
1997 SI WA 18:00:00 TS -11.89 91.32 1417 1411 O_____P_____O_ jtwc_sh SH361997 -11.80 91.30 45 0 -12.07 91.37 30 41 988 242 -11.80 91.30 TC 45 4 117
1997 SI WA 21:00:00 TS -11.98 91.49 1413 1413 P_____P_____P_ SH361997 -11.89 91.51 47 0 -12.18 91.47 30 44 985 242 -11.89 91.51 TC 47 4 119
1997 SI WA 22:00:00 TS -12.01 91.55 45 985 bom 1413 1407 P_____O_____P_ SH361997 -11.92 91.57 48 0 -12.20 91.50 30 45 985 3.00 242 3 5 -11.92 91.57 TC 48 4 118
1997 SI WA 1997-05-12 00:00:00 TS -12.07 91.66 1410 1404 O_____P_____O_ jtwc_sh SH361997 -12.00 91.70 50 0 -12.20 91.57 30 46 985 242 -12.00 91.70 TC 50 3 122
1997 SI WA 03:00:00 TS -12.16 91.79 1413 1413 P_____P_____P_ SH361997 -12.14 91.85 52 0 -12.19 91.67 30 49 985 242 -12.14 91.85 TC 52 3 127
1997 SI WA 04:00:00 TS -12.20 91.83 50 985 bom 1413 1407 P_____O_____P_ SH361997 -12.19 91.90 53 0 -12.20 91.70 30 50 985 3.50 242 3 5 -12.19 91.90 TC 53 4 136
1997 SI WA 06:00:00 TS -12.29 91.92 1416 1410 O_____P_____O_ jtwc_sh SH361997 -12.30 92.00 55 0 -12.26 91.76 30 53 981 242 -12.30 92.00 TC 55 4 135
1997 SI WA 07:00:00 TS -12.33 91.97 55 980 bom 1410 1410 P_____O_____P_ SH361997 -12.35 92.06 55 0 -12.30 91.80 30 55 980 4.00 242 3 5 -12.35 92.06 TC 55 5 127
1997 SI WA 09:00:00 TS -12.42 92.10 1414 1414 P_____P_____P_ SH361997 -12.45 92.19 57 0 -12.37 91.93 30 55 980 242 -12.45 92.19 TC 57 5 125
1997 SI WA 10:00:00 TS -12.47 92.17 55 980 bom 1417 1411 P_____O_____P_ SH361997 -12.50 92.26 58 0 -12.40 92.00 30 55 980 4.00 242 3 5 -12.50 92.26 TC 58 5 123
1997 SI WA 12:00:00 TS -12.54 92.30 1411 1410 O_____P_____O_ jtwc_sh SH361997 -12.60 92.40 60 0 -12.43 92.10 30 56 978 242 -12.60 92.40 TC 60 4 123
1997 SI WA 15:00:00 TS -12.66 92.48 1420 1420 P_____P_____P_ SH361997 -12.75 92.59 62 0 -12.48 92.24 30 59 975 242 -12.75 92.59 TC 62 4 124
1997 SI WA 16:00:00 TS -12.70 92.54 60 975 bom 1420 1414 P_____O_____P_ SH361997 -12.80 92.66 63 0 -12.50 92.30 30 60 975 4.00 242 3 5 -12.80 92.66 TC 63 5 123
1997 SI WA 18:00:00 TS -12.79 92.69 1418 1413 O_____P_____O_ jtwc_sh SH361997 -12.90 92.80 65 1 -12.58 92.46 30 60 975 242 -12.90 92.80 TC 65 6 122
1997 SI WA 21:00:00 TS -12.95 92.94 1418 1418 P_____P_____P_ SH361997 -13.05 93.04 67 1 -12.74 92.72 30 60 975 242 -13.05 93.04 TC 67 6 123
1997 SI WA 22:00:00 TS -13.00 93.02 60 975 bom 1423 1418 P_____O_____P_ SH361997 -13.10 93.13 68 1 -12.80 92.80 30 60 975 4.00 242 3 5 -13.10 93.13 TC 68 6 125
1997 SI WA 1997-05-13 00:00:00 TS -13.11 93.17 1423 1423 O_____P_____O_ jtwc_sh SH361997 -13.20 93.30 70 1 -12.93 92.91 30 61 973 250 -13.20 93.30 TC 70 5 128
1997 SI WA 03:00:00 TS -13.27 93.38 1428 1421 P_____P_____P_ SH361997 -13.34 93.55 72 1 -13.13 93.05 30 64 970 264 -13.34 93.55 TC 72 5 128
1997 SI WA 04:00:00 TS -13.33 93.46 65 970 bom 1421 1421 P_____O_____P_ SH361997 -13.39 93.63 73 1 -13.20 93.10 40 65 970 4.50 269 3 5 -13.39 93.63 TC 73 6 129
1997 SI WA 06:00:00 TS -13.44 93.60 1422 1422 O_____P_____O_ jtwc_sh SH361997 -13.50 93.80 75 1 -13.33 93.21 40 71 966 269 -13.50 93.80 TC 75 6 128
1997 SI WA 07:00:00 TS -13.50 93.68 75 965 bom 1423 1415 P_____O_____P_ SH361997 -13.55 93.88 75 1 -13.40 93.30 40 75 965 4.50 269 3 5 -13.55 93.88 TC 75 7 122
1997 SI WA 09:00:00 TS -13.62 93.89 1416 1416 P_____P_____P_ SH361997 -13.67 94.03 77 1 -13.53 93.61 40 78 961 269 -13.67 94.03 TC 77 7 121
1997 SI WA 10:00:00 TS -13.69 94.01 80 960 bom 1418 1411 P_____O_____P_ SH361997 -13.74 94.11 78 1 -13.60 93.80 40 80 960 5.00 269 3 5 -13.74 94.11 TC 78 9 125
1997 SI WA 12:00:00 TS -13.87 94.25 1413 1406 O_____P_____O_ jtwc_sh SH361997 -13.90 94.30 80 1 -13.80 94.16 40 80 958 269 -13.90 94.30 TC 80 10 128
1997 SI WA 15:00:00 TS -14.20 94.68 1410 1410 P_____P_____P_ SH361997 -14.22 94.66 85 2 -14.17 94.72 40 80 955 269 -14.22 94.66 TC 85 11 129
1997 SI WA 16:00:00 TS -14.33 94.83 80 955 bom 1412 1400 P_____O_____P_ SH361997 -14.34 94.80 86 2 -14.30 94.90 40 80 955 5.00 269 3 5 -14.34 94.80 TC 86 12 130
1997 SI WA 18:00:00 TS -14.59 95.15 1398 1386 O_____P_____O_ jtwc_sh SH361997 -14.60 95.10 90 2 -14.56 95.26 40 81 953 269 -14.60 95.10 TC 90 12 130
1997 SI WA 21:00:00 TS -14.98 95.64 1393 1384 P_____P_____P_ SH361997 -14.98 95.59 95 2 -14.96 95.75 40 84 950 269 -14.98 95.59 TC 95 12 130
1997 SI WA 22:00:00 TS -15.11 95.80 85 950 bom 1384 1375 P_____O_____P_ SH361997 -15.12 95.76 96 3 -15.10 95.90 40 85 950 5.00 269 3 5 -15.12 95.76 TC 96 12 132
1997 SI WA 1997-05-14 00:00:00 TS -15.39 96.12 1383 1375 O_____P_____O_ jtwc_sh SH361997 -15.40 96.10 100 3 -15.37 96.16 40 88 946 269 -15.40 96.10 TC 100 12 132
1997 SI WA 01:00:00 TS -15.53 96.28 90 945 bom 1375 1375 P_____O_____P_ SH361997 -15.54 96.26 100 3 -15.50 96.30 40 90 945 5.50 269 3 5 -15.54 96.26 TC 100 13 133
1997 SI WA 03:00:00 TS -15.81 96.60 1376 1376 P_____P_____P_ SH361997 -15.84 96.59 100 3 -15.76 96.62 40 93 938 269 -15.84 96.59 TC 100 13 132
1997 SI WA 04:00:00 TS -15.96 96.77 95 935 bom 1378 1370 P_____O_____P_ SH361997 -15.99 96.76 100 3 -15.90 96.80 40 95 935 5.50 269 8 4 5 -15.99 96.76 TC 100 14 132
1997 SI WA 06:00:00 TS -16.27 97.13 1381 1374 O_____P_____O_ jtwc_sh SH361997 -16.30 97.10 100 3 -16.22 97.19 40 95 938 269 -16.30 97.10 TC 100 14 132
1997 SI WA 07:00:00 TS -16.43 97.32 95 940 bom 1376 1376 P_____O_____P_ SH361997 -16.45 97.28 100 3 -16.40 97.40 40 95 940 5.50 269 8 4 5 -16.45 97.28 TC 100 15 132
1997 SI WA 09:00:00 TS -16.77 97.70 1385 1379 P_____P_____P_ SH361997 -16.75 97.64 100 3 -16.80 97.80 40 91 943 269 -16.75 97.64 TC 100 15 133
1997 SI WA 10:00:00 TS -16.93 97.89 90 945 bom 1381 1384 P_____O_____P_ SH361997 -16.90 97.83 100 3 -17.00 98.00 40 90 945 5.50 269 9 4 5 -16.90 97.83 TC 100 14 131
1997 SI WA 12:00:00 TS -17.23 98.26 1385 1385 O_____P_____O_ jtwc_sh SH361997 -17.20 98.20 100 3 -17.30 98.39 40 88 946 269 -17.20 98.20 TC 100 14 128
1997 SI WA 15:00:00 TS -17.65 98.83 1404 1393 P_____P_____P_ SH361997 -17.64 98.76 97 3 -17.68 98.99 40 85 949 269 -17.64 98.76 TC 97 14 128
1997 SI WA 16:00:00 TS -17.79 99.03 85 950 bom 1403 1398 P_____O_____P_ SH361997 -17.79 98.94 96 3 -17.80 99.20 40 85 950 5.00 269 3 5 -17.79 98.94 TC 96 14 129
1997 SI WA 18:00:00 TS -18.10 99.42 1413 1408 O_____P_____O_ jtwc_sh SH361997 -18.10 99.30 95 2 -18.10 99.67 40 83 951 269 -18.10 99.30 TC 95 15 132
1997 SI WA 21:00:00 TS -18.59 99.98 1432 1432 P_____P_____P_ SH361997 -18.61 99.78 85 2 -18.56 100.38 40 80 954 269 -18.61 99.78 TC 85 14 133
1997 SI WA 22:00:00 TS -18.76 100.16 80 955 bom 1441 1419 P_____O_____P_ SH361997 -18.78 99.94 81 1 -18.70 100.60 40 80 955 5.00 269 3 5 -18.78 99.94 TC 81 14 131
1997 SI WA 1997-05-15 00:00:00 TS -19.05 100.53 1415 1392 O_____P_____O_ jtwc_sh SH361997 -19.10 100.30 75 1 -18.95 101.00 40 76 961 269 -19.10 100.30 TC 75 14 128
1997 SI WA 01:00:00 TS -19.19 100.73 75 965 bom 1392 1345 P_____O_____P_ SH361997 -19.23 100.50 73 1 -19.10 101.20 40 75 965 4.50 269 3 5 -19.23 100.50 TC 73 15 125
1997 SI WA 03:00:00 TS -19.47 101.17 1331 1308 P_____P_____P_ SH361997 -19.46 100.93 70 1 -19.49 101.66 40 68 968 269 -19.46 100.93 TC 70 15 123
1997 SI WA 04:00:00 TS -19.61 101.42 65 970 bom 1308 1248 P_____O_____P_ SH361997 -19.57 101.17 68 1 -19.70 101.90 40 65 970 4.50 269 3 5 -19.57 101.17 TC 68 17 121
1997 SI WA 06:00:00 TS -19.89 101.93 1248 1156 O_____P_____O_ jtwc_sh SH361997 -19.80 101.70 65 1 -20.07 102.39 40 63 971 269 -19.80 101.70 TC 65 18 120
1997 SI WA 09:00:00 TS -20.36 102.78 1143 1110 P_____P_____P_ SH361997 -20.23 102.60 62 0 -20.61 103.15 40 60 974 269 -20.23 102.60 TC 62 19 120
1997 SI WA 10:00:00 TS -20.52 103.08 60 975 bom 1110 1052 P_____O_____P_ SH361997 -20.38 102.92 61 0 -20.80 103.40 30 60 975 4.00 269 3 5 -20.38 102.92 TC 61 20 121
1997 SI WA 12:00:00 TS -20.87 103.69 1039 939 O_____P_____O_ jtwc_sh SH361997 -20.70 103.60 60 0 -21.20 103.88 30 58 976 269 -20.70 103.60 TC 60 20 120
1997 SI WA 15:00:00 TS -21.38 104.64 937 892 P_____P_____P_ SH361997 -21.16 104.65 57 0 -21.80 104.63 30 55 979 269 -21.16 104.65 TC 57 21 120
1997 SI WA 16:00:00 TS -21.55 104.97 55 980 bom 892 826 P_____O_____P_ SH361997 -21.33 105.01 56 0 -22.00 104.90 30 55 980 4.00 269 3 5 -21.33 105.01 TC 56 22 121
1997 SI WA 18:00:00 TS -21.93 105.64 826 718 O_____P_____O_ jtwc_sh SH361997 -21.70 105.70 55 0 -22.38 105.53 30 51 981 269 -21.70 105.70 TC 55 22 123
1997 SI WA 21:00:00 TS -22.58 106.64 718 674 P_____P_____P_ SH361997 -22.40 106.72 50 0 -22.93 106.50 30 46 984 269 -22.40 106.72 TC 50 22 126
1997 SI WA 22:00:00 TS -22.80 106.95 45 985 bom 674 614 P_____O_____P_ SH361997 -22.64 107.03 48 0 -23.10 106.80 30 45 985 3.00 269 3 5 -22.64 107.03 TC 48 21 128
1997 SI WA 1997-05-16 00:00:00 TS -23.21 107.52 614 579 O_____P_____O_ jtwc_sh SH361997 -23.10 107.60 45 0 -23.43 107.35 30 41 988 269 -23.10 107.60 TC 45 19 129
1997 SI WA 01:00:00 TS -23.40 107.77 40 990 bom 579 533 P_____O_____P_ SH361997 -23.30 107.85 44 0 -23.60 107.60 30 40 990 3.00 269 3 5 -23.30 107.85 TC 44 17 130
1997 SI WA 03:00:00 TS -23.75 108.21 533 510 P_____P_____P_ SH361997 -23.65 108.28 42 0 -23.93 108.07 30 36 993 251 -23.65 108.28 TC 42 16 131
1997 SI WA 04:00:00 TS -23.91 108.41 35 995 bom 510 466 P_____O_____P_ SH361997 -23.81 108.47 41 0 -24.10 108.30 30 35 995 3.00 242 3 5 -23.81 108.47 TC 41 14 132
1997 SI WA 06:00:00 TS -24.22 108.80 466 445 O_____P_____O_ jtwc_sh SH361997 -24.10 108.80 40 0 -24.47 108.80 30 31 996 242 -24.10 108.80 TC 40 14 131
1997 SI WA 07:00:00 TS -24.36 108.97 30 998 bom 445 425 P_____O_____P_ SH361997 -24.24 108.96 39 0 -24.60 109.00 20 30 998 2.50 242 3 5 -24.24 108.96 TC 39 10 130
1997 SI WA 09:00:00 TS -24.55 109.24 425 415 P_____P_____P_ SH361997 -24.49 109.25 37 0 -24.69 109.22 20 26 999 242 -24.49 109.25 TC 37 9 129
1997 SI WA 10:00:00 TS -24.63 109.35 25 1000 bom 415 386 P_____O_____P_ SH361997 -24.60 109.37 36 0 -24.70 109.30 20 25 1000 2.00 242 3 5 -24.60 109.37 TC 36 8 128
1997 SI WA 12:00:00 TS -24.79 109.57 386 377 O_____P_____O_ jtwc_sh SH361997 -24.80 109.60 35 0 -24.77 109.51 20 25 1000 224 -24.80 109.60 TC 35 8 128
1997 SI WA 13:00:00 TS -24.86 109.67 25 1000 bom 377 367 P_____O_____P_ SH361997 -24.89 109.71 34 0 -24.80 109.60 20 25 1000 2.00 215 3 5 -24.89 109.71 TC 34 6 126
1997 SI WA 15:00:00 TS -24.98 109.85 359 359 P_____P_____P_ SH361997 -25.06 109.92 32 -1 -24.81 109.73 20 25 1000 215 -25.06 109.92 TC 32 6 125
1997 SI WA 16:00:00 TS -25.03 109.94 25 1000 bom 359 337 P_____O_____P_ SH361997 -25.14 110.01 31 -1 -24.80 109.80 20 25 1000 2.00 215 3 5 -25.14 110.01 TC 31 6 120
1997 SI WA 18:00:00 TS -25.13 110.13 337 325 O_____P_____O_ jtwc_sh SH361997 -25.30 110.20 30 -1 -24.78 109.99 20 25 1000 215 -25.30 110.20 TC 30 6 121
1997 SI WA 19:00:00 TS -25.19 110.24 25 1000 bom 325 303 P_____O_____P_ SH361997 -25.38 110.30 30 -1 -24.80 110.10 20 25 1000 2.00 215 3 5 -25.38 110.30 TC 30 8 127
1997 SI WA 21:00:00 TS -25.36 110.46 290 278 P_____P_____P_ SH361997 -25.55 110.51 30 -1 -24.97 110.37 20 25 1000 197 -25.55 110.51 TC 30 8 131
1997 SI WA 22:00:00 TS -25.46 110.57 25 1000 bom 278 263 P_____O_____P_ SH361997 -25.63 110.61 30 -1 -25.10 110.50 20 25 1000 2.00 188 3 5 -25.63 110.61 TC 30 8 140
1997 SI WA 1997-05-17 00:00:00 TS -25.68 110.76 253 242 O_____P_____O_ jtwc_sh SH361997 -25.80 110.80 30 -1 -25.43 110.69 20 25 1000 188 -25.80 110.80 TC 30 8 142
1997 SI WA 01:00:00 TS -25.79 110.86 25 1000 bom 242 219 P_____O_____P_ SH361997 -25.88 110.89 30 -1 -25.60 110.80 20 25 1000 2.00 188 3 5 -25.88 110.89 TC 30 8 137
1997 SI WA 03:00:00 TS -25.99 111.08 219 209 P_____P_____P_ SH361997 -26.05 111.06 30 -1 -25.86 111.12 20 25 1000 170 -26.05 111.06 TC 30 9 135
1997 SI WA 04:00:00 TS -26.09 111.19 25 1000 bom 209 189 P_____O_____P_ SH361997 -26.13 111.14 30 -1 -26.00 111.30 20 25 1000 2.00 161 3 5 -26.13 111.14 TC 30 9 140
1997 SI WA 06:00:00 TS -26.32 111.39 189 165 O_____P_____O_ jtwc_sh SH361997 -26.30 111.30 30 -1 -26.36 111.62 20 23 1001 152 -26.30 111.30 TC 30 9 144
1997 SI WA 09:00:00 TS -26.68 111.68 165 165 P_____P_____P_ SH361997 -26.55 111.55 27 -1 -27.05 112.06 20 20 1004 138 -26.55 111.55 TC 27 8 145
1997 SI WA 10:00:00 TS -26.77 111.74 20 1005 bom 168 159 P_____O_____P_ SH361997 -26.63 111.63 26 -1 -27.30 112.20 20 20 1005 1.00 134 3 5 -26.63 111.63 TC 26 3 138
1997 SI WA 12:00:00 TS -26.80 111.80 159 O___________O_ jtwc_sh SH361997 -26.80 111.80 25 -1 20 -26.80 111.80 TC 25 2 119